createdAt,value
2023-02-09T00:04:28.267Z,-0.80
2023-02-09T00:09:32.682Z,-0.89
2023-02-09T00:14:35.902Z,-0.84
2023-02-09T00:19:39.093Z,-0.83
2023-02-09T00:24:43.576Z,-0.82
2023-02-09T00:29:46.623Z,-0.83
2023-02-09T00:34:52.556Z,-0.83
2023-02-09T00:39:56.985Z,-0.87
2023-02-09T00:44:59.915Z,-0.88
2023-02-09T00:50:06.682Z,-0.90
2023-02-09T00:55:11.886Z,-0.97
2023-02-09T01:00:18.409Z,-0.93
2023-02-09T01:05:21.400Z,-1.00
2023-02-09T01:10:26.004Z,-0.99
2023-02-09T01:15:29.117Z,-1.01
2023-02-09T01:20:32.354Z,-1.02
2023-02-09T01:25:37.697Z,-1.06
2023-02-09T01:30:41.008Z,-1.13
2023-02-09T01:35:44.034Z,-1.12
2023-02-09T01:40:50.731Z,-1.25
2023-02-09T01:45:55.411Z,-1.20
2023-02-09T01:51:02.298Z,-1.31
2023-02-09T01:56:11.515Z,-1.28
2023-02-09T02:01:15.762Z,-1.28
2023-02-09T02:06:20.269Z,-1.35
2023-02-09T02:11:27.687Z,-1.38
2023-02-09T02:16:46.936Z,-1.39
2023-02-09T02:22:18.972Z,-1.44
2023-02-09T02:27:33.274Z,-1.45
2023-02-09T02:32:57.387Z,-1.49
2023-02-09T02:38:08.751Z,-1.51
2023-02-09T02:43:23.534Z,-1.54
2023-02-09T02:48:36.786Z,-1.56
2023-02-09T02:53:44.695Z,-1.56
2023-02-09T02:58:52.218Z,-1.58
2023-02-09T03:04:09.981Z,-1.66
2023-02-09T03:09:13.122Z,-1.58
2023-02-09T03:14:29.133Z,-1.59
2023-02-09T03:19:42.045Z,-1.63
2023-02-09T03:24:52.713Z,-1.60
2023-02-09T03:30:01.051Z,-1.64
2023-02-09T03:35:07.889Z,-1.60
2023-02-09T03:40:11.464Z,-1.59
2023-02-09T03:45:14.570Z,-1.59
2023-02-09T03:50:19.230Z,-1.58
2023-02-09T03:55:22.152Z,-1.59
2023-02-09T04:00:25.451Z,-1.60
2023-02-09T04:05:29.925Z,-1.61
2023-02-09T04:10:32.886Z,-1.61
2023-02-09T04:15:36.610Z,-1.64
2023-02-09T04:20:41.039Z,-1.65
2023-02-09T04:25:44.427Z,-1.66
2023-02-09T04:30:52.361Z,-1.69
2023-02-09T04:35:56.855Z,-1.70
2023-02-09T04:41:02.505Z,-1.72
2023-02-09T04:46:05.902Z,-1.73
2023-02-09T04:51:10.997Z,-1.79
2023-02-09T04:56:15.824Z,-1.79
2023-02-09T05:01:22.077Z,-1.86
2023-02-09T05:06:26.853Z,-1.85
2023-02-09T05:11:29.864Z,-1.85
2023-02-09T05:16:32.964Z,-1.88
2023-02-09T05:21:37.459Z,-1.90
2023-02-09T05:26:40.527Z,-1.93
2023-02-09T05:31:43.770Z,-1.93
2023-02-09T05:36:48.361Z,-1.97
2023-02-09T05:42:09.079Z,-1.97
2023-02-09T05:47:12.359Z,-2.03
2023-02-09T05:52:17.431Z,-2.02
2023-02-09T05:57:20.527Z,-2.02
2023-02-09T06:02:23.539Z,-2.05
2023-02-09T06:07:28.080Z,-2.11
2023-02-09T06:12:31.033Z,-2.06
2023-02-09T06:17:34.150Z,-2.04
2023-02-09T06:22:38.689Z,-2.05
2023-02-09T06:27:41.714Z,-2.09
2023-02-09T06:32:44.722Z,-2.10
2023-02-09T06:37:49.289Z,-2.05
2023-02-09T06:42:52.575Z,-2.07
2023-02-09T06:47:55.992Z,-2.03
2023-02-09T06:53:00.846Z,-2.03
2023-02-09T06:58:04.096Z,-2.06
2023-02-09T07:03:07.270Z,-2.04
2023-02-09T07:08:12.020Z,-2.01
2023-02-09T07:13:15.028Z,-2.03
2023-02-09T07:18:18.360Z,-2.02
2023-02-09T07:23:23.046Z,-1.99
2023-02-09T07:28:26.079Z,-1.92
2023-02-09T07:33:29.238Z,-1.90
2023-02-09T07:38:34.919Z,-1.89
2023-02-09T07:43:38.246Z,-1.82
2023-02-09T07:48:41.240Z,-1.75
2023-02-09T07:53:45.822Z,-1.70
2023-02-09T07:58:48.969Z,-1.57
2023-02-09T08:03:52.386Z,-1.50
2023-02-09T08:08:57.217Z,-1.34
2023-02-09T08:14:04.707Z,-1.24
2023-02-09T08:19:12.525Z,-1.08
2023-02-09T08:24:19.684Z,-0.98
2023-02-09T08:29:23.110Z,-0.80
2023-02-09T08:34:26.243Z,-0.67
2023-02-09T08:39:30.875Z,-0.57
2023-02-09T08:44:34.148Z,-0.42
2023-02-09T08:49:37.262Z,-0.43
2023-02-09T08:54:41.943Z,-0.23
2023-02-09T08:59:44.970Z,-0.14
2023-02-09T09:04:48.285Z,0.05
2023-02-09T09:09:53.189Z,0.17
2023-02-09T09:14:56.463Z,0.29
2023-02-09T09:19:59.882Z,0.42
2023-02-09T09:25:06.434Z,0.54
2023-02-09T09:30:10.628Z,0.72
2023-02-09T09:35:14.020Z,0.90
2023-02-09T09:40:22.736Z,1.22
2023-02-09T09:45:28.098Z,1.42
2023-02-09T09:50:33.858Z,1.71
2023-02-09T09:55:39.606Z,1.90
2023-02-09T10:00:44.569Z,2.12
2023-02-09T10:05:50.696Z,2.41
2023-02-09T10:10:58.983Z,2.86
2023-02-09T10:16:03.300Z,3.12
2023-02-09T10:21:08.745Z,3.51
2023-02-09T10:26:23.009Z,3.93
2023-02-09T10:31:30.441Z,4.16
2023-02-09T10:36:36.886Z,4.37
2023-02-09T10:41:43.833Z,4.46
2023-02-09T10:46:48.277Z,4.56
2023-02-09T10:51:52.294Z,4.55
2023-02-09T10:56:57.012Z,4.58
2023-02-09T11:02:02.108Z,4.55
2023-02-09T11:07:11.492Z,4.63
2023-02-09T11:12:16.215Z,4.79
2023-02-09T11:17:24.264Z,4.79
2023-02-09T11:22:52.590Z,4.86
2023-02-09T11:28:12.973Z,4.80
2023-02-09T11:33:23.141Z,4.72
2023-02-09T11:38:34.633Z,4.73
2023-02-09T11:43:42.427Z,5.20
2023-02-09T11:48:51.120Z,5.42
2023-02-09T11:54:03.294Z,5.67
2023-02-09T11:59:11.577Z,5.89
2023-02-09T12:04:19.941Z,5.88
2023-02-09T12:09:44.723Z,5.81
2023-02-09T12:15:12.768Z,5.81
2023-02-09T12:20:27.061Z,5.74
2023-02-09T12:26:00.958Z,5.66
2023-02-09T12:31:14.381Z,5.71
2023-02-09T12:36:30.349Z,5.85
2023-02-09T12:42:20.369Z,5.97
2023-02-09T12:47:46.295Z,6.14
2023-02-09T12:53:22.742Z,6.34
2023-02-09T12:58:36.585Z,6.25
2023-02-09T13:03:52.540Z,6.50
2023-02-09T13:08:58.230Z,6.71
2023-02-09T13:14:06.075Z,6.78
2023-02-09T13:19:24.275Z,6.83
2023-02-09T13:24:36.663Z,6.86
2023-02-09T13:29:48.877Z,7.02
2023-02-09T13:34:58.882Z,7.12
2023-02-09T13:40:04.583Z,7.27
2023-02-09T13:45:18.829Z,7.38
2023-02-09T13:50:24.860Z,7.45
2023-02-09T13:55:33.141Z,7.48
2023-02-09T14:00:41.573Z,7.35
2023-02-09T14:05:51.891Z,7.10
2023-02-09T14:10:59.874Z,6.99
2023-02-09T14:16:07.911Z,6.96
2023-02-09T14:21:34.287Z,6.92
2023-02-09T14:26:47.804Z,6.86
2023-02-09T14:31:52.949Z,6.82
2023-02-09T14:36:59.480Z,6.73
2023-02-09T14:42:18.242Z,6.71
2023-02-09T14:47:38.674Z,6.62
2023-02-09T14:52:47.479Z,6.65
2023-02-09T14:57:50.557Z,6.63
2023-02-09T15:02:54.786Z,6.57
2023-02-09T15:08:05.812Z,6.46
2023-02-09T15:13:11.929Z,6.39
2023-02-09T15:18:19.837Z,6.32
2023-02-09T15:23:24.279Z,6.23
2023-02-09T15:28:30.126Z,6.12
2023-02-09T15:33:33.360Z,6.18
2023-02-09T15:38:38.166Z,6.12
2023-02-09T15:43:58.835Z,6.10
2023-02-09T15:49:05.672Z,6.03
2023-02-09T15:54:15.729Z,6.04
2023-02-09T15:59:21.068Z,6.01
2023-02-09T16:04:24.133Z,5.94
2023-02-09T16:09:30.949Z,5.98
2023-02-09T16:14:34.077Z,5.89
2023-02-09T16:19:39.875Z,5.87
2023-02-09T16:24:46.834Z,5.86
2023-02-09T16:29:50.061Z,5.80
2023-02-09T16:35:02.040Z,5.80
2023-02-09T16:40:28.202Z,5.71
2023-02-09T16:45:36.509Z,5.72
2023-02-09T16:50:45.411Z,5.65
2023-02-09T16:55:50.450Z,5.65
2023-02-09T17:00:54.015Z,5.63
2023-02-09T17:05:58.261Z,5.66
2023-02-09T17:11:04.990Z,5.54
2023-02-09T17:16:16.578Z,5.33
2023-02-09T17:21:23.301Z,5.26
2023-02-09T17:26:28.959Z,5.28
2023-02-09T17:31:50.885Z,5.23
2023-02-09T17:36:57.145Z,5.19
2023-02-09T17:42:01.713Z,5.18
2023-02-09T17:47:04.790Z,5.20
2023-02-09T17:52:07.989Z,5.16
2023-02-09T17:57:15.046Z,5.14
2023-02-09T18:02:19.800Z,5.04
2023-02-09T18:07:23.146Z,4.88
2023-02-09T18:12:29.430Z,4.82
2023-02-09T18:17:32.424Z,4.89
2023-02-09T18:22:35.567Z,4.92
2023-02-09T18:27:39.981Z,4.81
2023-02-09T18:32:42.977Z,4.55
2023-02-09T18:37:47.166Z,4.33
2023-02-09T18:42:51.751Z,4.05
2023-02-09T18:47:55.092Z,4.05
2023-02-09T18:53:00.156Z,3.94
2023-02-09T18:58:06.718Z,3.83
2023-02-09T19:03:10.020Z,3.68
2023-02-09T19:08:13.126Z,3.63
2023-02-09T19:13:17.427Z,3.52
2023-02-09T19:18:20.373Z,3.46
2023-02-09T19:23:23.661Z,3.36
2023-02-09T19:28:28.171Z,3.27
2023-02-09T19:33:31.199Z,3.23
2023-02-09T19:38:34.292Z,3.16
2023-02-09T19:43:38.849Z,3.11
2023-02-09T19:48:42.634Z,3.03
2023-02-09T19:53:45.753Z,2.96
2023-02-09T19:58:50.872Z,2.89
2023-02-09T20:03:54.508Z,2.84
2023-02-09T20:08:57.586Z,2.69
2023-02-09T20:14:03.142Z,2.71
2023-02-09T20:19:06.946Z,2.63
2023-02-09T20:24:12.531Z,2.52
2023-02-09T20:29:17.255Z,2.50
2023-02-09T20:34:20.452Z,2.42
2023-02-09T20:39:23.545Z,2.34
2023-02-09T20:44:45.080Z,2.16
2023-02-09T20:49:48.345Z,2.16
2023-02-09T20:54:51.355Z,2.11
2023-02-09T20:59:56.044Z,1.93
2023-02-09T21:04:59.611Z,1.95
2023-02-09T21:10:02.795Z,1.89
2023-02-09T21:15:08.610Z,1.80
2023-02-09T21:20:12.357Z,1.77
2023-02-09T21:25:15.418Z,1.70
2023-02-09T21:30:20.204Z,1.64
2023-02-09T21:35:24.148Z,1.59
2023-02-09T21:40:27.647Z,1.51
2023-02-09T21:45:32.224Z,1.47
2023-02-09T21:50:35.295Z,1.27
2023-02-09T21:55:38.309Z,1.34
2023-02-09T22:00:42.690Z,1.23
2023-02-09T22:05:45.663Z,1.31
2023-02-09T22:10:51.074Z,1.22
2023-02-09T22:15:57.254Z,1.10
2023-02-09T22:21:02.830Z,0.96
2023-02-09T22:26:07.059Z,0.95
2023-02-09T22:31:14.314Z,0.96
2023-02-09T22:36:19.934Z,0.89
2023-02-09T22:41:24.526Z,0.93
2023-02-09T22:46:31.278Z,0.91
2023-02-09T22:51:36.706Z,0.92
2023-02-09T22:56:39.708Z,0.83
2023-02-09T23:01:44.576Z,0.81
2023-02-09T23:06:47.942Z,0.81
2023-02-09T23:11:51.415Z,0.76
2023-02-09T23:16:55.839Z,0.80
2023-02-09T23:21:58.842Z,0.80
2023-02-09T23:27:02.024Z,0.80
2023-02-09T23:32:06.360Z,0.71
2023-02-09T23:37:18.502Z,0.74
2023-02-09T23:42:21.893Z,0.69
2023-02-09T23:47:26.340Z,0.67
2023-02-09T23:52:29.481Z,0.62
2023-02-09T23:57:32.568Z,0.59
